createdAt,value
2022-11-26T00:01:17.721Z,100.00
2022-11-26T00:06:31.951Z,100.00
2022-11-26T00:11:37.656Z,100.00
2022-11-26T00:16:44.162Z,100.00
2022-11-26T00:21:50.093Z,100.00
2022-11-26T00:26:59.137Z,100.00
2022-11-26T00:32:05.696Z,100.00
2022-11-26T00:37:21.140Z,100.00
2022-11-26T00:42:27.130Z,100.00
2022-11-26T00:47:32.908Z,100.00
2022-11-26T00:52:38.943Z,100.00
2022-11-26T00:57:44.984Z,100.00
2022-11-26T01:02:50.889Z,100.00
2022-11-26T01:08:02.476Z,100.00
2022-11-26T01:13:11.129Z,100.00
2022-11-26T01:18:20.104Z,100.00
2022-11-26T01:23:26.287Z,100.00
2022-11-26T01:28:31.898Z,100.00
2022-11-26T01:33:37.649Z,100.00
2022-11-26T01:38:43.654Z,100.00
2022-11-26T01:43:52.020Z,100.00
2022-11-26T01:49:18.913Z,100.00
2022-11-26T01:54:24.872Z,100.00
2022-11-26T01:59:37.363Z,100.00
2022-11-26T02:04:49.335Z,100.00
2022-11-26T02:09:55.146Z,100.00
2022-11-26T02:15:00.807Z,100.00
2022-11-26T02:20:35.365Z,100.00
2022-11-26T02:26:06.856Z,100.00
2022-11-26T02:31:16.656Z,100.00
2022-11-26T02:36:27.897Z,100.00
2022-11-26T02:41:43.872Z,100.00
2022-11-26T02:46:54.482Z,100.00
2022-11-26T02:52:02.848Z,100.00
2022-11-26T02:57:13.044Z,100.00
2022-11-26T03:02:24.743Z,100.00
2022-11-26T03:07:34.421Z,100.00
2022-11-26T03:12:40.361Z,100.00
2022-11-26T03:17:46.394Z,100.00
2022-11-26T03:22:52.124Z,100.00
2022-11-26T03:27:57.809Z,100.00
2022-11-26T03:33:03.569Z,100.00
2022-11-26T03:38:09.689Z,100.00
2022-11-26T03:43:15.332Z,100.00
2022-11-26T03:48:21.204Z,100.00
2022-11-26T03:53:27.535Z,100.00
2022-11-26T03:58:33.280Z,100.00
2022-11-26T04:03:39.789Z,100.00
2022-11-26T04:08:46.431Z,100.00
2022-11-26T04:13:52.108Z,100.00
2022-11-26T04:18:57.909Z,100.00
2022-11-26T04:24:03.650Z,100.00
2022-11-26T04:29:09.296Z,100.00
2022-11-26T04:34:15.020Z,100.00
2022-11-26T04:39:21.113Z,100.00
2022-11-26T04:44:26.989Z,100.00
2022-11-26T04:49:32.885Z,100.00
2022-11-26T04:54:38.788Z,100.00
2022-11-26T04:59:44.820Z,100.00
2022-11-26T05:04:51.810Z,100.00
2022-11-26T05:09:57.603Z,100.00
2022-11-26T05:15:03.890Z,100.00
2022-11-26T05:20:11.531Z,100.00
2022-11-26T05:25:17.736Z,100.00
2022-11-26T05:30:23.726Z,100.00
2022-11-26T05:35:29.682Z,100.00
2022-11-26T05:40:35.542Z,100.00
2022-11-26T05:45:41.329Z,100.00
2022-11-26T05:50:51.563Z,100.00
2022-11-26T05:56:00.159Z,100.00
2022-11-26T06:01:10.323Z,100.00
2022-11-26T06:06:16.157Z,100.00
2022-11-26T06:11:22.040Z,100.00
2022-11-26T06:16:27.983Z,100.00
2022-11-26T06:21:33.693Z,100.00
2022-11-26T06:26:39.633Z,100.00
2022-11-26T06:31:46.105Z,100.00
2022-11-26T06:36:52.141Z,100.00
2022-11-26T06:41:58.181Z,100.00
2022-11-26T06:47:04.220Z,100.00
2022-11-26T06:52:10.068Z,100.00
2022-11-26T06:57:16.085Z,100.00
2022-11-26T07:02:22.492Z,100.00
2022-11-26T07:07:28.428Z,100.00
2022-11-26T07:12:34.416Z,100.00
2022-11-26T07:17:40.018Z,100.00
2022-11-26T07:22:46.497Z,100.00
2022-11-26T07:27:52.330Z,100.00
2022-11-26T07:32:58.079Z,100.00
2022-11-26T07:38:04.408Z,100.00
2022-11-26T07:43:11.552Z,100.00
2022-11-26T07:48:22.791Z,100.00
2022-11-26T07:53:32.586Z,100.00
2022-11-26T07:58:39.971Z,100.00
2022-11-26T08:03:48.452Z,100.00
2022-11-26T08:08:54.381Z,100.00
2022-11-26T08:14:02.662Z,100.00
2022-11-26T08:19:11.659Z,100.00
2022-11-26T08:24:20.091Z,100.00
2022-11-26T08:29:26.305Z,100.00
2022-11-26T08:34:33.791Z,100.00
2022-11-26T08:39:40.032Z,100.00
2022-11-26T08:44:45.966Z,100.00
2022-11-26T08:49:51.690Z,100.00
2022-11-26T08:54:57.432Z,100.00
2022-11-26T09:00:05.461Z,100.00
2022-11-26T09:05:11.424Z,100.00
2022-11-26T09:10:17.688Z,100.00
2022-11-26T09:15:23.694Z,100.00
2022-11-26T09:20:29.513Z,100.00
2022-11-26T09:25:37.680Z,100.00
2022-11-26T09:30:44.293Z,100.00
2022-11-26T09:35:50.584Z,100.00
2022-11-26T09:41:04.970Z,100.00
2022-11-26T09:46:13.771Z,100.00
2022-11-26T09:51:20.725Z,100.00
2022-11-26T09:56:28.229Z,100.00
2022-11-26T10:01:34.723Z,100.00
2022-11-26T10:06:50.634Z,100.00
2022-11-26T10:12:10.944Z,100.00
2022-11-26T10:17:35.952Z,100.00
2022-11-26T10:22:56.747Z,100.00
2022-11-26T10:28:15.289Z,100.00
2022-11-26T10:33:22.038Z,100.00
2022-11-26T10:38:29.134Z,100.00
2022-11-26T10:43:35.588Z,100.00
2022-11-26T10:48:41.849Z,100.00
2022-11-26T10:53:55.154Z,100.00
2022-11-26T10:59:05.897Z,100.00
2022-11-26T11:04:27.614Z,100.00
2022-11-26T11:09:36.075Z,100.00
2022-11-26T11:14:44.082Z,100.00
2022-11-26T11:19:50.061Z,100.00
2022-11-26T11:24:57.684Z,100.00
2022-11-26T11:32:06.571Z,99.98
2022-11-26T11:37:17.667Z,99.71
2022-11-26T11:42:23.784Z,99.50
2022-11-26T11:47:37.179Z,99.70
2022-11-26T11:52:56.176Z,99.85
2022-11-26T11:58:26.653Z,99.49
2022-11-26T12:03:55.693Z,99.00
2022-11-26T12:09:12.234Z,99.07
2022-11-26T12:14:23.169Z,99.08
2022-11-26T12:19:39.659Z,98.82
2022-11-26T12:24:50.893Z,98.72
2022-11-26T12:30:01.287Z,98.89
2022-11-26T12:35:12.704Z,98.88
2022-11-26T12:40:30.615Z,98.77
2022-11-26T12:45:49.213Z,98.53
2022-11-26T12:50:58.840Z,98.33
2022-11-26T12:56:15.015Z,98.42
2022-11-26T13:01:21.107Z,98.80
2022-11-26T13:06:46.736Z,98.97
2022-11-26T13:12:02.012Z,99.14
2022-11-26T13:17:13.393Z,98.83
2022-11-26T13:22:46.281Z,98.81
2022-11-26T13:28:02.320Z,98.72
2022-11-26T13:33:31.124Z,98.51
2022-11-26T13:38:48.139Z,98.57
2022-11-26T13:44:49.513Z,98.65
2022-11-26T13:49:56.863Z,98.83
2022-11-26T13:55:05.842Z,98.68
2022-11-26T14:00:23.283Z,98.59
2022-11-26T14:06:08.296Z,98.80
2022-11-26T14:11:54.538Z,98.76
2022-11-26T14:17:23.659Z,98.85
2022-11-26T14:22:32.070Z,98.76
2022-11-26T14:27:41.558Z,98.75
2022-11-26T14:32:55.269Z,99.17
2022-11-26T14:38:02.399Z,99.05
2022-11-26T14:43:19.739Z,98.95
2022-11-26T14:48:27.925Z,98.95
2022-11-26T14:53:36.370Z,99.09
2022-11-26T14:58:46.002Z,99.15
2022-11-26T15:04:02.942Z,99.14
2022-11-26T15:09:15.762Z,99.37
2022-11-26T15:14:27.624Z,99.30
2022-11-26T15:19:44.591Z,99.24
2022-11-26T15:24:54.539Z,99.27
2022-11-26T15:30:00.877Z,99.46
2022-11-26T15:35:14.882Z,99.50
2022-11-26T15:40:26.412Z,99.33
2022-11-26T15:45:39.306Z,99.38
2022-11-26T15:50:47.087Z,99.61
2022-11-26T15:55:53.797Z,99.53
2022-11-26T16:01:02.561Z,99.59
2022-11-26T16:06:25.732Z,99.45
2022-11-26T16:11:47.422Z,99.20
2022-11-26T16:16:53.740Z,99.40
2022-11-26T16:22:04.792Z,99.29
2022-11-26T16:27:28.246Z,99.10
2022-11-26T16:32:34.016Z,99.07
2022-11-26T16:37:45.081Z,98.97
2022-11-26T16:42:52.848Z,99.04
2022-11-26T16:48:28.869Z,99.15
2022-11-26T16:53:34.513Z,99.23
2022-11-26T16:58:41.095Z,99.20
2022-11-26T17:03:53.858Z,99.18
2022-11-26T17:09:00.274Z,99.28
2022-11-26T17:14:06.170Z,98.84
2022-11-26T17:19:40.950Z,98.40
2022-11-26T17:25:12.629Z,98.08
2022-11-26T17:30:31.774Z,97.97
2022-11-26T17:35:44.176Z,98.02
2022-11-26T17:40:50.304Z,97.95
2022-11-26T17:45:56.986Z,97.90
2022-11-26T17:51:02.788Z,98.00
2022-11-26T17:56:17.188Z,98.00
2022-11-26T18:01:23.181Z,98.20
2022-11-26T18:06:37.713Z,98.29
2022-11-26T18:11:46.878Z,98.38
2022-11-26T18:16:53.144Z,98.33
2022-11-26T18:21:59.008Z,98.54
2022-11-26T18:27:05.770Z,98.47
2022-11-26T18:32:12.774Z,98.47
2022-11-26T18:37:19.251Z,98.44
2022-11-26T18:42:40.809Z,98.59
2022-11-26T18:47:46.786Z,98.63
2022-11-26T18:52:55.155Z,98.59
2022-11-26T18:58:05.269Z,98.54
2022-11-26T19:03:14.477Z,98.38
2022-11-26T19:08:20.470Z,98.46
2022-11-26T19:13:27.298Z,98.52
2022-11-26T19:18:33.179Z,98.59
2022-11-26T19:23:38.889Z,98.70
2022-11-26T19:28:45.802Z,98.54
2022-11-26T19:33:58.224Z,98.59
2022-11-26T19:39:04.899Z,98.50
2022-11-26T19:44:10.737Z,98.64
2022-11-26T19:49:16.748Z,98.79
2022-11-26T19:54:23.396Z,98.80
2022-11-26T19:59:29.322Z,98.78
2022-11-26T20:04:35.307Z,98.71
2022-11-26T20:09:41.551Z,98.82
2022-11-26T20:14:49.240Z,98.87
2022-11-26T20:19:55.051Z,98.88
2022-11-26T20:25:01.117Z,98.90
2022-11-26T20:30:09.161Z,99.10
2022-11-26T20:35:15.001Z,99.25
2022-11-26T20:40:21.116Z,99.12
2022-11-26T20:45:26.907Z,99.03
2022-11-26T20:50:32.842Z,98.97
2022-11-26T20:55:38.804Z,99.17
2022-11-26T21:00:44.744Z,99.08
2022-11-26T21:05:50.685Z,99.18
2022-11-26T21:10:56.824Z,99.45
2022-11-26T21:16:05.951Z,99.42
2022-11-26T21:21:15.087Z,99.49
2022-11-26T21:26:22.976Z,99.41
2022-11-26T21:31:31.684Z,99.35
2022-11-26T21:36:38.470Z,99.32
2022-11-26T21:41:44.588Z,98.94
2022-11-26T21:46:50.633Z,98.69
2022-11-26T21:51:56.690Z,98.57
2022-11-26T21:57:03.272Z,98.54
2022-11-26T22:02:10.264Z,98.56
2022-11-26T22:07:16.417Z,98.60
2022-11-26T22:12:22.664Z,98.58
2022-11-26T22:17:28.664Z,98.53
2022-11-26T22:22:34.671Z,98.29
2022-11-26T22:27:40.551Z,98.14
2022-11-26T22:32:46.852Z,97.86
2022-11-26T22:37:53.685Z,97.85
2022-11-26T22:47:43.268Z,98.14
2022-11-26T22:52:49.754Z,98.45
2022-11-26T22:57:55.534Z,98.88
2022-11-26T23:03:01.850Z,99.14
2022-11-26T23:08:08.163Z,99.54
2022-11-26T23:13:16.178Z,99.79
2022-11-26T23:18:21.998Z,99.92
2022-11-26T23:23:27.918Z,100.00
2022-11-26T23:28:34.869Z,100.00
2022-11-26T23:33:40.920Z,100.00
2022-11-26T23:38:46.840Z,100.00
2022-11-26T23:43:52.692Z,100.00
2022-11-26T23:48:58.679Z,100.00
2022-11-26T23:54:04.627Z,100.00
2022-11-26T23:59:11.374Z,100.00
